Terminal Aerodrome Forecast
Issued by NWS Rapid City, SD

Home | Current Version | Previous Version | Text Only | Print | Product List | Glossary On
Versions: 1 2 3 4 5 6 7 8 9 10 11 12 13 14 15 16 17 18 19 20 21 22 23 24 25 26 27 28 29 30 31 32 33 34 35 36
000
FTUS43 KUNR 171235 AAB
TAFRAP
TAF AMD
KRAP 171235Z 1713/1812 36012KT P6SM SCT003 BKN090
      TEMPO 1713/1714 BKN003
     FM171600 33010KT P6SM BKN090
     FM171800 07008KT P6SM VCTS BKN050CB OVC100
     FM180100 12009KT P6SM OVC100=

USA.gov is the U.S. government's official web portal to all federal, state and local government web resources and services.